createdAt,value
2023-05-08T00:01:18.255Z,73.28
2023-05-08T00:03:44.984Z,73.16
2023-05-08T00:06:11.779Z,73.62
2023-05-08T00:08:39.483Z,73.18
2023-05-08T00:11:06.029Z,74.20
2023-05-08T00:13:32.651Z,73.88
2023-05-08T00:15:59.203Z,73.72
2023-05-08T00:18:26.569Z,74.00
2023-05-08T00:20:53.138Z,74.89
2023-05-08T00:23:22.089Z,75.68
2023-05-08T00:25:48.634Z,75.02
2023-05-08T00:28:15.218Z,75.62
2023-05-08T00:30:42.728Z,75.22
2023-05-08T00:33:09.647Z,75.76
2023-05-08T00:35:36.493Z,75.73
2023-05-08T00:38:03.370Z,75.19
2023-05-08T00:40:29.909Z,75.49
2023-05-08T00:42:56.499Z,75.60
2023-05-08T00:45:23.212Z,75.55
2023-05-08T00:47:50.662Z,75.66
2023-05-08T00:50:17.972Z,75.37
2023-05-08T00:52:44.870Z,75.39
2023-05-08T00:55:11.717Z,74.89
2023-05-08T00:57:38.506Z,75.09
2023-05-08T01:00:05.816Z,75.50
2023-05-08T01:02:32.845Z,75.31
2023-05-08T01:05:00.020Z,75.51
2023-05-08T01:07:27.468Z,75.83
2023-05-08T01:09:54.081Z,75.64
2023-05-08T01:12:34.801Z,75.89
2023-05-08T01:15:20.450Z,75.91
2023-05-08T01:18:05.602Z,77.08
2023-05-08T01:20:38.383Z,77.40
2023-05-08T01:23:05.051Z,77.14
2023-05-08T01:25:50.557Z,77.14
2023-05-08T01:28:29.433Z,77.35
2023-05-08T01:30:56.056Z,78.12
2023-05-08T01:33:22.726Z,78.22
2023-05-08T01:36:24.982Z,77.84
2023-05-08T01:39:10.914Z,78.22
2023-05-08T01:41:38.478Z,79.10
2023-05-08T01:44:13.853Z,78.27
2023-05-08T01:46:42.805Z,78.86
2023-05-08T01:49:11.418Z,78.61
2023-05-08T01:51:43.947Z,78.93
2023-05-08T01:54:12.407Z,78.72
2023-05-08T01:56:40.262Z,78.62
2023-05-08T01:59:07.732Z,78.91
2023-05-08T02:01:34.972Z,79.12
2023-05-08T02:04:03.360Z,78.58
2023-05-08T02:06:31.500Z,78.80
2023-05-08T02:08:59.610Z,78.56
2023-05-08T02:11:26.255Z,78.13
2023-05-08T02:13:54.786Z,78.64
2023-05-08T02:16:22.014Z,78.62
2023-05-08T02:18:51.296Z,78.59
2023-05-08T02:21:18.580Z,78.36
2023-05-08T02:23:45.549Z,78.78
2023-05-08T02:26:14.695Z,78.86
2023-05-08T02:28:41.976Z,78.34
2023-05-08T02:31:12.357Z,79.02
2023-05-08T02:33:41.626Z,79.03
2023-05-08T02:36:09.135Z,79.09
2023-05-08T02:38:37.722Z,78.56
2023-05-08T02:41:06.576Z,78.94
2023-05-08T02:43:33.281Z,78.92
2023-05-08T02:46:10.874Z,79.33
2023-05-08T02:48:44.494Z,79.56
2023-05-08T02:51:40.634Z,79.16
2023-05-08T02:54:16.662Z,80.05
2023-05-08T02:57:06.484Z,80.52
2023-05-08T02:59:37.744Z,80.38
2023-05-08T03:02:10.770Z,80.65
2023-05-08T03:04:42.064Z,80.24
2023-05-08T03:07:08.931Z,80.50
2023-05-08T03:09:39.849Z,79.64
2023-05-08T03:12:08.404Z,80.20
2023-05-08T03:14:37.432Z,79.78
2023-05-08T03:17:06.420Z,80.51
2023-05-08T03:19:37.413Z,79.72
2023-05-08T03:22:07.582Z,79.70
2023-05-08T03:24:36.594Z,79.82
2023-05-08T03:27:04.659Z,79.84
2023-05-08T03:29:32.054Z,79.39
2023-05-08T03:32:00.553Z,79.54
2023-05-08T03:34:28.668Z,80.17
2023-05-08T03:36:55.590Z,79.80
2023-05-08T03:39:22.481Z,79.56
2023-05-08T03:41:49.743Z,79.12
2023-05-08T03:44:16.669Z,77.78
2023-05-08T03:46:43.896Z,77.58
2023-05-08T03:49:11.075Z,74.98
2023-05-08T03:51:40.872Z,69.90
2023-05-08T03:54:07.826Z,65.73
2023-05-08T03:56:34.665Z,64.24
2023-05-08T03:59:09.232Z,62.62
2023-05-08T04:01:42.808Z,59.91
2023-05-08T04:04:12.407Z,62.08
2023-05-08T04:06:49.428Z,62.10
2023-05-08T04:09:28.990Z,62.18
2023-05-08T04:11:55.562Z,63.15
2023-05-08T04:14:24.694Z,62.05
2023-05-08T04:16:52.246Z,60.98
2023-05-08T04:19:27.609Z,56.48
2023-05-08T04:21:57.452Z,54.40
2023-05-08T04:24:25.141Z,51.81
2023-05-08T04:26:52.024Z,47.53
2023-05-08T04:29:19.653Z,47.70
2023-05-08T04:31:47.042Z,47.08
2023-05-08T04:34:14.046Z,43.77
2023-05-08T04:36:40.786Z,45.10
2023-05-08T04:39:07.988Z,44.75
2023-05-08T04:41:35.613Z,45.81
2023-05-08T04:44:03.787Z,45.06
2023-05-08T04:46:30.489Z,42.01
2023-05-08T04:48:57.359Z,44.14
2023-05-08T04:51:23.943Z,45.37
2023-05-08T04:53:50.717Z,44.54
2023-05-08T04:56:17.640Z,44.12
2023-05-08T04:58:44.434Z,44.09
2023-05-08T05:01:11.438Z,41.25
2023-05-08T05:03:38.152Z,43.16
2023-05-08T05:06:04.794Z,39.29
2023-05-08T05:08:31.498Z,39.37
2023-05-08T05:10:58.856Z,40.99
2023-05-08T05:13:26.175Z,38.13
2023-05-08T05:15:54.575Z,38.51
2023-05-08T05:18:22.413Z,39.80
2023-05-08T05:20:50.421Z,39.49
2023-05-08T05:23:17.504Z,39.22
2023-05-08T05:25:44.574Z,37.94
2023-05-08T05:28:11.100Z,36.18
2023-05-08T05:30:37.641Z,36.22
2023-05-08T05:33:04.558Z,37.45
2023-05-08T05:35:31.372Z,39.20
2023-05-08T05:37:57.901Z,35.27
2023-05-08T05:40:24.849Z,35.67
2023-05-08T05:42:51.486Z,36.64
2023-05-08T05:45:18.921Z,35.31
2023-05-08T05:47:50.076Z,35.63
2023-05-08T05:50:19.113Z,38.57
2023-05-08T05:52:47.026Z,39.91
2023-05-08T05:55:13.997Z,38.33
2023-05-08T05:57:40.984Z,37.20
2023-05-08T06:00:08.902Z,39.88
2023-05-08T06:02:41.893Z,40.55
2023-05-08T06:05:11.253Z,40.53
2023-05-08T06:07:38.410Z,40.45
2023-05-08T06:10:05.238Z,42.88
2023-05-08T06:12:31.879Z,42.99
2023-05-08T06:14:59.669Z,45.09
2023-05-08T06:17:26.918Z,44.16
2023-05-08T06:19:55.968Z,44.15
2023-05-08T06:22:23.375Z,44.93
2023-05-08T06:24:53.343Z,42.42
2023-05-08T06:27:21.050Z,42.06
2023-05-08T06:29:48.468Z,44.97
2023-05-08T06:32:14.970Z,42.30
2023-05-08T06:34:41.534Z,41.05
2023-05-08T06:37:08.095Z,41.25
2023-05-08T06:39:34.739Z,40.68
2023-05-08T06:42:01.380Z,42.12
2023-05-08T06:44:31.175Z,42.98
2023-05-08T06:46:57.685Z,42.27
2023-05-08T06:49:24.249Z,43.95
2023-05-08T06:51:51.026Z,42.71
2023-05-08T06:54:17.841Z,43.70
2023-05-08T06:56:44.592Z,44.50
2023-05-08T06:59:11.120Z,44.73
2023-05-08T07:01:37.838Z,46.37
2023-05-08T07:04:05.235Z,47.03
2023-05-08T07:06:31.781Z,44.49
2023-05-08T07:08:58.289Z,43.51
2023-05-08T07:11:24.894Z,45.82
2023-05-08T07:13:51.459Z,46.11
2023-05-08T07:16:18.099Z,46.99
2023-05-08T07:18:44.898Z,44.60
2023-05-08T07:21:11.438Z,46.90
2023-05-08T07:23:38.040Z,46.94
2023-05-08T07:26:04.616Z,48.09
2023-05-08T07:28:31.176Z,48.03
2023-05-08T07:30:57.765Z,46.50
2023-05-08T07:33:24.358Z,44.36
2023-05-08T07:35:51.040Z,45.62
2023-05-08T07:38:17.567Z,46.35
2023-05-08T07:40:44.084Z,47.38
2023-05-08T07:43:10.673Z,47.66
2023-05-08T07:45:37.278Z,46.82
2023-05-08T07:48:03.902Z,45.87
2023-05-08T07:50:30.519Z,45.54
2023-05-08T07:52:57.274Z,44.45
2023-05-08T07:55:23.824Z,44.22
2023-05-08T07:57:50.465Z,45.71
2023-05-08T08:00:17.298Z,45.12
2023-05-08T08:02:44.589Z,43.91
2023-05-08T08:05:11.825Z,42.44
2023-05-08T08:07:38.931Z,44.28
2023-05-08T08:10:05.849Z,42.92
2023-05-08T08:12:32.600Z,43.22
2023-05-08T08:14:59.123Z,42.01
2023-05-08T08:17:28.435Z,43.62
2023-05-08T08:19:55.734Z,43.72
2023-05-08T08:22:22.225Z,42.84
2023-05-08T08:24:48.763Z,42.01
2023-05-08T08:27:15.444Z,42.23
2023-05-08T08:29:41.945Z,43.30
2023-05-08T08:32:08.578Z,44.51
2023-05-08T08:34:35.275Z,44.99
2023-05-08T08:37:01.930Z,45.30
2023-05-08T08:39:32.195Z,45.41
2023-05-08T08:41:58.765Z,42.91
2023-05-08T08:44:25.479Z,42.93
2023-05-08T08:46:52.738Z,43.27
2023-05-08T08:49:24.506Z,44.31
2023-05-08T08:51:53.012Z,44.94
2023-05-08T08:54:21.345Z,44.81
2023-05-08T08:56:49.198Z,45.11
2023-05-08T08:59:16.287Z,44.32
2023-05-08T09:01:45.020Z,44.96
2023-05-08T09:04:11.766Z,44.22
2023-05-08T09:06:38.981Z,43.28
2023-05-08T09:09:05.660Z,43.58
2023-05-08T09:11:32.408Z,43.91
2023-05-08T09:13:59.187Z,45.35
2023-05-08T09:16:25.851Z,41.18
2023-05-08T09:18:52.414Z,39.92
2023-05-08T09:21:19.586Z,40.71
2023-05-08T09:24:02.863Z,41.63
2023-05-08T09:26:33.319Z,43.88
2023-05-08T09:29:09.830Z,44.22
2023-05-08T09:31:39.641Z,44.01
2023-05-08T09:34:07.358Z,44.37
2023-05-08T09:36:34.786Z,44.78
2023-05-08T09:39:01.918Z,43.91
2023-05-08T09:41:28.496Z,42.47
2023-05-08T09:44:04.125Z,41.45
2023-05-08T09:46:31.191Z,42.59
2023-05-08T09:48:58.900Z,44.18
2023-05-08T09:51:26.493Z,42.97
2023-05-08T09:53:54.038Z,43.54
2023-05-08T09:56:34.637Z,43.85
2023-05-08T09:59:02.314Z,42.53
2023-05-08T10:01:32.985Z,43.96
2023-05-08T10:03:59.911Z,43.80
2023-05-08T10:06:28.254Z,41.80
2023-05-08T10:09:13.324Z,41.57
2023-05-08T10:11:40.599Z,42.53
2023-05-08T10:14:07.347Z,40.23
2023-05-08T10:16:41.733Z,42.01
2023-05-08T10:19:15.739Z,43.88
2023-05-08T10:21:45.122Z,43.51
2023-05-08T10:24:16.254Z,42.17
2023-05-08T10:26:57.157Z,41.86
2023-05-08T10:29:38.262Z,41.97
2023-05-08T10:32:08.244Z,42.48
2023-05-08T10:34:35.265Z,43.06
2023-05-08T10:37:01.805Z,41.40
2023-05-08T10:39:28.977Z,42.54
2023-05-08T10:41:55.577Z,41.49
2023-05-08T10:44:22.399Z,43.98
2023-05-08T10:46:49.025Z,45.12
2023-05-08T10:49:27.870Z,42.22
2023-05-08T10:52:09.832Z,43.01
2023-05-08T10:54:42.474Z,44.31
2023-05-08T10:57:10.535Z,46.07
2023-05-08T10:59:40.372Z,43.59
2023-05-08T11:02:08.036Z,43.49
2023-05-08T11:04:35.201Z,41.87
2023-05-08T11:07:01.969Z,42.08
2023-05-08T11:09:49.157Z,41.71
2023-05-08T11:12:18.686Z,41.13
2023-05-08T11:14:53.574Z,42.19
2023-05-08T11:17:23.528Z,42.23
2023-05-08T11:19:57.489Z,44.50
2023-05-08T11:22:26.369Z,43.64
2023-05-08T11:24:55.958Z,43.62
2023-05-08T11:27:39.171Z,41.54
2023-05-08T11:30:24.252Z,41.20
2023-05-08T11:33:11.095Z,41.38
2023-05-08T11:35:41.932Z,39.38
2023-05-08T11:38:11.967Z,41.34
2023-05-08T11:40:44.980Z,42.42
2023-05-08T11:43:30.098Z,41.77
2023-05-08T11:46:00.016Z,45.14
2023-05-08T11:48:26.551Z,45.66
2023-05-08T11:50:53.107Z,43.98
2023-05-08T11:53:19.657Z,44.45
2023-05-08T11:55:49.671Z,42.69
2023-05-08T11:58:16.481Z,41.16
2023-05-08T12:00:46.867Z,43.80
2023-05-08T12:03:18.251Z,42.06
2023-05-08T12:05:45.258Z,42.43
2023-05-08T12:08:12.904Z,39.65
2023-05-08T12:10:52.700Z,40.92
2023-05-08T12:13:26.484Z,41.38
2023-05-08T12:15:54.774Z,39.66
2023-05-08T12:18:22.206Z,39.72
2023-05-08T12:20:53.281Z,42.77
2023-05-08T12:23:19.953Z,40.92
2023-05-08T12:25:46.497Z,41.61
2023-05-08T12:28:13.303Z,38.79
2023-05-08T12:30:39.914Z,39.41
2023-05-08T12:33:07.042Z,39.18
2023-05-08T12:35:33.752Z,39.65
2023-05-08T12:38:03.963Z,40.72
2023-05-08T12:40:31.815Z,40.55
2023-05-08T12:43:01.086Z,39.90
2023-05-08T12:45:29.425Z,38.97
2023-05-08T12:47:59.380Z,39.10
2023-05-08T12:50:26.071Z,38.58
2023-05-08T12:52:53.251Z,39.42
2023-05-08T12:55:20.554Z,40.40
2023-05-08T12:57:47.196Z,40.80
2023-05-08T13:00:15.994Z,40.32
2023-05-08T13:02:53.691Z,39.45
2023-05-08T13:05:20.960Z,40.75
2023-05-08T13:07:47.609Z,40.73
2023-05-08T13:10:14.401Z,40.95
2023-05-08T13:12:41.157Z,40.19
2023-05-08T13:15:08.087Z,39.46
2023-05-08T13:17:34.672Z,40.67
2023-05-08T13:20:05.195Z,40.29
2023-05-08T13:22:32.809Z,39.46
2023-05-08T13:24:59.348Z,40.56
2023-05-08T13:27:25.985Z,39.13
2023-05-08T13:29:52.601Z,38.90
2023-05-08T13:32:19.234Z,42.74
2023-05-08T13:34:50.185Z,40.61
2023-05-08T13:37:18.131Z,38.84
2023-05-08T13:39:44.687Z,40.26
2023-05-08T13:42:11.216Z,39.29
2023-05-08T13:44:37.806Z,38.55
2023-05-08T13:47:04.383Z,38.42
2023-05-08T13:49:31.409Z,39.33
2023-05-08T13:51:57.995Z,38.63
2023-05-08T13:54:24.585Z,39.80
2023-05-08T13:56:51.147Z,38.97
2023-05-08T13:59:17.683Z,38.39
2023-05-08T14:01:44.230Z,38.28
2023-05-08T14:04:10.970Z,38.73
2023-05-08T14:06:37.701Z,40.74
2023-05-08T14:09:04.280Z,39.52
2023-05-08T14:11:30.862Z,39.75
2023-05-08T14:13:57.842Z,39.56
2023-05-08T14:16:24.402Z,38.58
2023-05-08T14:18:50.981Z,39.84
2023-05-08T14:21:17.565Z,39.84
2023-05-08T14:23:45.099Z,40.49
2023-05-08T14:26:11.665Z,39.72
2023-05-08T14:28:38.276Z,38.92
2023-05-08T14:31:04.964Z,39.37
2023-05-08T14:33:31.524Z,39.77
2023-05-08T14:35:58.052Z,39.21
2023-05-08T14:38:24.784Z,39.44
2023-05-08T14:40:51.445Z,39.18
2023-05-08T14:43:18.075Z,39.47
2023-05-08T14:45:44.581Z,39.15
2023-05-08T14:48:11.261Z,39.09
2023-05-08T14:50:38.225Z,39.39
2023-05-08T14:53:04.847Z,38.04
2023-05-08T14:55:31.729Z,40.10
2023-05-08T14:57:58.405Z,39.19
2023-05-08T15:00:24.922Z,38.04
2023-05-08T15:02:51.537Z,39.22
2023-05-08T15:05:19.900Z,39.75
2023-05-08T15:07:47.104Z,40.21
2023-05-08T15:10:13.654Z,39.64
2023-05-08T15:12:40.239Z,39.21
2023-05-08T15:15:07.086Z,39.15
2023-05-08T15:17:36.528Z,39.08
2023-05-08T15:20:03.872Z,38.84
2023-05-08T15:22:30.548Z,38.15
2023-05-08T15:25:02.405Z,37.91
2023-05-08T15:27:29.366Z,38.92
2023-05-08T15:29:56.008Z,38.04
2023-05-08T15:32:22.567Z,39.50
2023-05-08T15:34:49.144Z,39.66
2023-05-08T15:37:15.678Z,39.92
2023-05-08T15:39:43.376Z,39.26
2023-05-08T15:42:09.964Z,39.58
2023-05-08T15:47:05.974Z,41.85
2023-05-08T15:49:32.530Z,39.23
2023-05-08T15:51:59.045Z,39.54
2023-05-08T15:54:25.697Z,39.48
2023-05-08T15:56:52.220Z,39.71
2023-05-08T15:59:18.904Z,39.90
2023-05-08T16:01:47.024Z,39.87
2023-05-08T16:04:13.717Z,40.97
2023-05-08T16:06:40.284Z,41.19
2023-05-08T16:09:07.453Z,41.87
2023-05-08T16:11:34.014Z,41.66
2023-05-08T16:14:01.898Z,41.48
2023-05-08T16:16:28.654Z,41.53
2023-05-08T16:18:55.259Z,41.53
2023-05-08T16:21:22.744Z,41.37
2023-05-08T16:23:49.347Z,42.01
2023-05-08T16:26:16.608Z,41.71
2023-05-08T16:28:43.244Z,41.98
2023-05-08T16:31:11.716Z,41.55
2023-05-08T16:33:38.273Z,42.17
2023-05-08T16:36:04.963Z,42.51
2023-05-08T16:38:31.540Z,42.48
2023-05-08T16:41:01.767Z,42.25
2023-05-08T16:43:28.295Z,42.78
2023-05-08T16:45:56.211Z,42.71
2023-05-08T16:48:24.199Z,42.32
2023-05-08T16:50:51.179Z,42.84
2023-05-08T16:53:17.679Z,43.65
2023-05-08T16:55:44.257Z,43.54
2023-05-08T16:58:11.236Z,43.12
2023-05-08T17:00:37.784Z,43.30
2023-05-08T17:03:04.403Z,43.82
2023-05-08T17:05:31.134Z,43.16
2023-05-08T17:07:57.675Z,43.19
2023-05-08T17:10:24.362Z,43.40
2023-05-08T17:12:54.036Z,43.20
2023-05-08T17:15:20.795Z,43.54
2023-05-08T17:17:50.665Z,43.51
2023-05-08T17:20:17.330Z,43.06
2023-05-08T17:22:43.875Z,42.98
2023-05-08T17:25:10.480Z,43.72
2023-05-08T17:27:38.492Z,43.96
2023-05-08T17:30:06.140Z,44.30
2023-05-08T17:32:32.725Z,43.80
2023-05-08T17:34:59.302Z,43.58
2023-05-08T17:37:25.857Z,43.78
2023-05-08T17:39:52.533Z,43.96
2023-05-08T17:42:19.120Z,43.90
2023-05-08T17:44:45.863Z,43.48
2023-05-08T17:47:12.494Z,44.01
2023-05-08T17:49:39.169Z,44.07
2023-05-08T17:52:06.073Z,44.06
2023-05-08T17:54:32.664Z,44.30
2023-05-08T17:57:00.523Z,44.25
2023-05-08T17:59:27.037Z,44.38
2023-05-08T18:01:54.569Z,44.56
2023-05-08T18:04:21.150Z,44.94
2023-05-08T18:06:49.418Z,44.99
2023-05-08T18:09:15.994Z,45.00
2023-05-08T18:11:42.680Z,45.31
2023-05-08T18:14:09.262Z,45.47
2023-05-08T18:16:36.014Z,46.20
2023-05-08T18:19:02.597Z,46.18
2023-05-08T18:21:29.242Z,46.85
2023-05-08T18:23:55.881Z,47.28
2023-05-08T18:26:22.438Z,47.39
2023-05-08T18:28:49.117Z,47.70
2023-05-08T18:31:17.101Z,47.96
2023-05-08T18:33:43.731Z,47.46
2023-05-08T18:36:10.290Z,47.45
2023-05-08T18:38:36.971Z,47.87
2023-05-08T18:41:04.121Z,47.59
2023-05-08T18:43:30.768Z,47.56
2023-05-08T18:45:58.102Z,47.89
2023-05-08T18:48:25.571Z,48.10
2023-05-08T18:50:52.353Z,48.06
2023-05-08T18:53:19.571Z,48.20
2023-05-08T18:55:46.118Z,48.45
2023-05-08T18:58:12.719Z,48.49
2023-05-08T19:00:39.465Z,48.48
2023-05-08T19:03:06.117Z,49.03
2023-05-08T19:05:32.879Z,49.06
2023-05-08T19:07:59.430Z,49.40
2023-05-08T19:10:26.081Z,49.48
2023-05-08T19:12:52.712Z,49.78
2023-05-08T19:15:19.405Z,50.01
2023-05-08T19:17:45.967Z,50.35
2023-05-08T19:20:13.329Z,50.52
2023-05-08T19:22:40.087Z,50.81
2023-05-08T19:25:06.723Z,50.90
2023-05-08T19:27:33.295Z,51.20
2023-05-08T19:29:59.882Z,51.46
2023-05-08T19:32:26.601Z,51.80
2023-05-08T19:34:55.357Z,51.96
2023-05-08T19:37:21.905Z,52.44
2023-05-08T19:39:48.664Z,52.16
2023-05-08T19:42:15.174Z,52.29
2023-05-08T19:44:41.723Z,52.26
2023-05-08T19:47:08.275Z,52.30
2023-05-08T19:49:35.088Z,52.48
2023-05-08T19:52:01.658Z,52.83
2023-05-08T19:54:28.790Z,52.93
2023-05-08T19:56:55.940Z,53.12
2023-05-08T19:59:22.474Z,53.11
2023-05-08T20:01:50.369Z,53.28
2023-05-08T20:04:17.115Z,53.42
2023-05-08T20:06:43.735Z,53.65
2023-05-08T20:09:10.479Z,53.42
2023-05-08T20:11:37.029Z,53.33
2023-05-08T20:14:03.794Z,53.54
2023-05-08T20:16:30.388Z,53.47
2023-05-08T20:18:57.100Z,53.35
2023-05-08T20:21:23.686Z,53.79
2023-05-08T20:23:50.247Z,53.77
2023-05-08T20:26:16.814Z,53.94
2023-05-08T20:28:43.470Z,54.06
2023-05-08T20:31:10.163Z,53.58
2023-05-08T20:33:36.966Z,54.26
2023-05-08T20:36:03.653Z,53.89
2023-05-08T20:38:30.487Z,54.21
2023-05-08T20:41:00.901Z,54.03
2023-05-08T20:43:27.887Z,54.06
2023-05-08T20:45:54.784Z,54.74
2023-05-08T20:48:21.413Z,54.21
2023-05-08T20:50:48.323Z,54.44
2023-05-08T20:53:15.469Z,54.19
2023-05-08T20:55:41.960Z,54.41
2023-05-08T20:58:11.193Z,54.10
2023-05-08T21:00:37.823Z,54.73
2023-05-08T21:03:04.498Z,55.11
2023-05-08T21:05:31.128Z,55.17
2023-05-08T21:08:00.219Z,55.77
2023-05-08T21:10:28.725Z,55.89
2023-05-08T21:12:55.293Z,55.79
2023-05-08T21:15:21.899Z,56.48
2023-05-08T21:17:50.407Z,56.73
2023-05-08T21:20:17.159Z,57.14
2023-05-08T21:22:46.278Z,57.04
2023-05-08T21:25:16.283Z,57.23
2023-05-08T21:27:43.095Z,57.35
2023-05-08T21:30:14.861Z,57.83
2023-05-08T21:32:42.629Z,58.43
2023-05-08T21:35:10.178Z,58.54
2023-05-08T21:37:36.915Z,58.99
2023-05-08T21:40:04.319Z,59.42
2023-05-08T21:42:31.611Z,59.50
2023-05-08T21:44:58.466Z,59.92
2023-05-08T21:47:27.980Z,60.67
2023-05-08T21:49:55.174Z,61.02
2023-05-08T21:52:22.525Z,60.29
2023-05-08T21:54:49.814Z,60.69
2023-05-08T21:57:16.694Z,61.10
2023-05-08T21:59:43.243Z,61.62
2023-05-08T22:02:09.943Z,61.74
2023-05-08T22:04:36.598Z,61.55
2023-05-08T22:07:03.215Z,61.48
2023-05-08T22:09:29.812Z,61.66
2023-05-08T22:11:56.376Z,62.11
2023-05-08T22:14:23.024Z,62.65
2023-05-08T22:16:49.856Z,63.60
2023-05-08T22:19:16.510Z,63.90
2023-05-08T22:21:43.246Z,62.81
2023-05-08T22:24:09.820Z,63.57
2023-05-08T22:26:36.362Z,63.38
2023-05-08T22:29:02.928Z,63.53
2023-05-08T22:31:29.508Z,64.05
2023-05-08T22:33:57.269Z,63.75
2023-05-08T22:36:24.253Z,63.85
2023-05-08T22:38:50.835Z,64.84
2023-05-08T22:41:17.484Z,64.98
2023-05-08T22:43:44.076Z,64.85
2023-05-08T22:46:11.477Z,65.37
2023-05-08T22:48:38.276Z,65.25
2023-05-08T22:51:04.943Z,65.41
2023-05-08T22:53:31.515Z,65.89
2023-05-08T22:55:58.037Z,65.66
2023-05-08T22:58:27.188Z,65.80
2023-05-08T23:00:53.867Z,65.92
2023-05-08T23:03:20.564Z,66.69
2023-05-08T23:05:48.796Z,66.12
2023-05-08T23:08:15.473Z,67.44
2023-05-08T23:10:42.087Z,67.11
2023-05-08T23:13:08.697Z,68.34
2023-05-08T23:15:36.048Z,68.28
2023-05-08T23:18:02.683Z,68.97
2023-05-08T23:20:29.271Z,68.79
2023-05-08T23:22:56.037Z,69.38
2023-05-08T23:25:22.622Z,69.60
2023-05-08T23:27:49.227Z,69.62
2023-05-08T23:30:16.978Z,70.35
2023-05-08T23:32:43.976Z,70.26
2023-05-08T23:35:10.688Z,70.19
2023-05-08T23:37:37.397Z,71.00
2023-05-08T23:40:04.230Z,70.70
2023-05-08T23:42:30.744Z,70.18
2023-05-08T23:44:57.381Z,70.65
2023-05-08T23:47:24.048Z,70.66
2023-05-08T23:49:50.634Z,70.49
2023-05-08T23:52:17.428Z,70.88
2023-05-08T23:54:43.952Z,70.78
2023-05-08T23:57:10.775Z,70.66
2023-05-08T23:59:37.317Z,70.56
